Time;durP1;ratioP1;P1;durP2;ratioP2;P2;SDS_P1;SDS_P2;PMS_P1;PMS_P2;Temp;Humidity;BMP_temperature;BMP_pressure;BME280_temperature;BME280_humidity;BME280_pressure;Samples;Min_cycle;Max_cycle;Signal;HPM_P1;HPM_P2
2024/01/09 00:01:23;;;;;;;8.02;7.22;;;;;;;;;;5018983;28;20938;-67
2024/01/09 00:03:50;;;;;;;6.68;5.75;;;;;;;;;;5020423;28;20282;-69
2024/01/09 00:06:19;;;;;;;8.65;6.97;;;;;;;;;;5018116;28;20644;-68
2024/01/09 00:08:46;;;;;;;7.28;6.60;;;;;;;;;;5019774;28;20357;-69
2024/01/09 00:11:12;;;;;;;8.13;6.60;;;;;;;;;;5019298;28;20311;-67
2024/01/09 00:13:39;;;;;;;8.02;6.47;;;;;;;23.25;100.00;56616.03;5019898;28;20278;-68
2024/01/09 00:16:05;;;;;;;8.27;7.45;;;;;;;;;;5019470;28;20203;-66
2024/01/09 00:18:32;;;;;;;7.53;6.88;;;;;;;;;;5018745;28;20298;-70
2024/01/09 00:20:58;;;;;;;7.82;7.07;;;;;;;;;;5019474;28;20231;-70
2024/01/09 00:23:26;;;;;;;7.28;6.60;;;;;;;;;;5017160;28;20345;-68
2024/01/09 00:25:52;;;;;;;7.75;6.97;;;;;;;;;;5015580;28;20286;-68
2024/01/09 00:28:19;;;;;;;8.77;7.05;;;;;;;;;;5019538;28;20231;-69
2024/01/09 00:30:45;;;;;;;7.93;7.18;;;;;;;;;;5018986;28;20284;-67
2024/01/09 00:33:11;;;;;;;6.70;6.07;;;;;;;;;;5018598;28;20294;-67
2024/01/09 00:35:38;;;;;;;6.72;6.22;;;;;;;;;;5018814;28;20299;-69
2024/01/09 00:38:04;;;;;;;7.82;6.43;;;;;;;;;;5019398;28;20681;-68
2024/01/09 00:40:32;;;;;;;7.88;6.70;;;;;;;;;;5019477;28;20286;-71
2024/01/09 00:42:58;;;;;;;6.80;5.90;;;;;;;;;;5019472;28;20723;-67
2024/01/09 00:45:25;;;;;;;7.57;6.88;;;;;;;;;;5019381;28;20299;-67
2024/01/09 00:47:51;;;;;;;7.97;7.15;;;;;;;;;;5019583;28;20219;-67
2024/01/09 00:50:17;;;;;;;8.00;6.70;;;;;;;;;;5017307;28;20650;-69
2024/01/09 00:52:44;;;;;;;7.53;6.82;;;;;;;;;;5017630;28;20601;-68
2024/01/09 00:55:10;;;;;;;9.63;7.05;;;;;;;;;;5015955;28;20226;-65
2024/01/09 00:57:38;;;;;;;7.57;6.80;;;;;;;;;;5018088;28;20202;-68
2024/01/09 01:00:05;;;;;;;7.45;6.75;;;;;;;;;;5018176;28;20903;-68
2024/01/09 01:02:32;;;;;;;7.10;6.43;;;;;;;23.41;100.00;56616.03;5017794;28;20644;-70
2024/01/09 01:04:58;;;;;;;9.93;6.75;;;;;;;;;;5018616;28;20204;-65
2024/01/09 01:07:24;;;;;;;6.75;6.20;;;;;;;;;;5017608;28;20224;-67
2024/01/09 01:09:51;;;;;;;7.38;6.57;;;;;;;;;;5019602;28;20660;-71
2024/01/09 01:12:17;;;;;;;7.32;6.63;;;;;;;;;;5019324;28;20309;-71
2024/01/09 01:14:45;;;;;;;8.63;6.60;;;;;;;;;;5018537;28;20781;-69
2024/01/09 01:17:11;;;;;;;6.68;5.90;;;;;;;;;;5018979;28;20214;-68
2024/01/09 01:19:38;;;;;;;6.70;6.10;;;;;;;;;;5022154;28;20226;-68
2024/01/09 01:22:04;;;;;;;6.88;6.25;;;;;;;23.26;100.00;56616.03;5023107;28;20223;-68
2024/01/09 01:24:31;;;;;;;7.13;6.38;;;;;;;;;;5023549;28;20592;-68
2024/01/09 01:26:57;;;;;;;7.13;6.45;;;;;;;-142.91;100.00;56616.03;5019682;28;20729;-69
2024/01/09 01:29:24;;;;;;;7.40;6.70;;;;;;;;;;5022519;28;20204;-70
2024/01/09 01:31:51;;;;;;;7.22;6.53;;;;;;;;;;5022114;28;21616;-68
2024/01/09 01:34:18;;;;;;;8.82;6.95;;;;;;;;;;5018692;28;20298;-70
2024/01/09 01:36:44;;;;;;;6.68;5.80;;;;;;;23.57;100.00;56616.03;5021775;28;20211;-70
2024/01/09 01:39:11;;;;;;;6.95;5.90;;;;;;;;;;5021323;28;20215;-69
2024/01/09 01:41:38;;;;;;;7.60;6.88;;;;;;;;;;5022674;28;20200;-68
2024/01/09 01:44:13;;;;;;;9.90;6.53;;;;;;;;;;5022115;28;20290;-71
2024/01/09 01:46:39;;;;;;;7.75;6.95;;;;;;;;;;5022272;28;20768;-68
2024/01/09 01:49:07;;;;;;;7.35;6.45;;;;;;;;;;5021942;28;20986;-69
2024/01/09 01:51:34;;;;;;;7.80;7.10;;;;;;;;;;5022153;28;20512;-68
2024/01/09 01:54:00;;;;;;;7.53;6.82;;;;;;;;;;5021752;28;20373;-70
2024/01/09 01:56:26;;;;;;;6.90;6.30;;;;;;;;;;5020475;28;20200;-70
2024/01/09 01:58:53;;;;;;;7.95;6.65;;;;;;;;;;5021905;28;20706;-70
2024/01/09 02:01:19;;;;;;;7.05;6.35;;;;;;;;;;5020400;28;20307;-70
2024/01/09 02:03:46;;;;;;;6.93;6.30;;;;;;;;;;5021845;28;20239;-69
2024/01/09 02:06:13;;;;;;;7.57;6.88;;;;;;;;;;5020619;28;20721;-72
2024/01/09 02:08:42;;;;;;;8.15;6.55;;;;;;;-142.91;100.00;56616.03;5021395;28;20714;-70
2024/01/09 02:11:08;;;;;;;6.43;5.82;;;;;;;23.29;100.00;56616.03;5021455;28;20287;-71
2024/01/09 02:13:35;;;;;;;7.03;6.32;;;;;;;;;;5021364;28;20804;-71
2024/01/09 02:16:02;;;;;;;6.13;5.53;;;;;;;23.41;100.00;56616.03;5021761;28;20214;-70
2024/01/09 02:18:28;;;;;;;8.45;6.28;;;;;;;;;;5021643;28;20318;-67
2024/01/09 02:20:54;;;;;;;7.60;5.57;;;;;;;;;;5021545;28;20977;-71
2024/01/09 02:23:22;;;;;;;8.82;6.88;;;;;;;;;;5022069;28;20207;-70
2024/01/09 02:25:50;;;;;;;6.72;6.13;;;;;;;;;;5020086;28;20326;-69
2024/01/09 02:28:19;;;;;;;7.05;6.30;;;;;;;;;;5019366;28;20231;-66
2024/01/09 02:30:47;;;;;;;6.40;5.70;;;;;;;;;;5021259;28;21053;-71
2024/01/09 02:33:14;;;;;;;5.75;5.35;;;;;;;;;;5020728;28;20222;-71
2024/01/09 02:35:40;;;;;;;7.32;6.63;;;;;;;;;;5020665;28;20207;-70
2024/01/09 02:38:07;;;;;;;8.10;6.45;;;;;;;-142.91;100.00;56616.03;5021429;28;20973;-69
2024/01/09 02:40:34;;;;;;;7.07;6.20;;;;;;;-142.91;100.00;56616.03;5022280;28;20290;-71
2024/01/09 02:43:00;;;;;;;7.40;6.10;;;;;;;;;;5020737;28;20222;-70
2024/01/09 02:45:26;;;;;;;9.15;6.97;;;;;;;;;;5020584;28;20320;-69
2024/01/09 02:47:54;;;;;;;10.23;6.53;;;;;;;;;;5021462;28;20315;-66
2024/01/09 02:50:21;;;;;;;7.47;6.35;;;;;;;;;;5018482;28;20231;-72
2024/01/09 02:52:47;;;;;;;6.32;5.72;;;;;;;;;;5019724;28;20218;-69
2024/01/09 02:55:14;;;;;;;7.30;6.38;;;;;;;23.33;100.00;56616.03;5018508;28;20212;-66
2024/01/09 02:57:41;;;;;;;9.48;5.82;;;;;;;;;;5020198;28;20318;-67
2024/01/09 03:00:08;;;;;;;8.75;6.93;;;;;;;;;;5019926;28;21521;-72
2024/01/09 03:02:34;;;;;;;8.73;7.30;;;;;;;23.26;100.00;56616.03;5018562;28;20208;-70
2024/01/09 03:05:03;;;;;;;7.22;6.55;;;;;;;;;;5019870;28;20763;-68
2024/01/09 03:07:29;;;;;;;7.85;7.05;;;;;;;;;;5019435;28;20258;-66
2024/01/09 03:09:55;;;;;;;7.35;6.05;;;;;;;;;;5021297;28;20294;-69
2024/01/09 03:12:22;;;;;;;6.15;5.57;;;;;;;;;;5020504;28;20738;-71
2024/01/09 03:14:48;;;;;;;6.95;6.25;;;;;;;;;;5020957;28;20294;-68
2024/01/09 03:17:15;;;;;;;7.30;6.60;;;;;;;;;;5019638;28;20294;-66
2024/01/09 03:19:42;;;;;;;7.05;6.30;;;;;;;;;;5021409;28;20318;-70
2024/01/09 03:22:10;;;;;;;7.07;6.45;;;;;;;;;;5020695;28;20297;-70
2024/01/09 03:24:37;;;;;;;7.47;6.75;;;;;;;;;;5020556;28;20284;-70
2024/01/09 03:27:04;;;;;;;7.53;6.78;;;;;;;;;;5019551;28;20326;-69
2024/01/09 03:29:30;;;;;;;9.23;6.82;;;;;;;;;;5020940;28;20203;-67
2024/01/09 03:31:57;;;;;;;7.78;6.97;;;;;;;;;;5019586;28;20724;-66
2024/01/09 03:34:23;;;;;;;10.20;7.57;;;;;;;23.26;100.00;56616.03;5019840;28;20200;-67
2024/01/09 03:36:50;;;;;;;7.28;6.10;;;;;;;;;;5019570;28;20203;-68
2024/01/09 03:39:17;;;;;;;7.40;6.55;;;;;;;;;;5020521;28;20287;-69
2024/01/09 03:41:44;;;;;;;8.10;6.97;;;;;;;;;;5019399;28;20295;-67
2024/01/09 03:44:12;;;;;;;7.78;7.03;;;;;;;23.29;100.00;56616.03;5020532;28;20203;-70
2024/01/09 03:46:38;;;;;;;7.78;6.97;;;;;;;;;;5019280;28;20776;-67
2024/01/09 03:49:05;;;;;;;7.22;6.35;;;;;;;;;;5020389;28;20319;-66
2024/01/09 03:51:31;;;;;;;7.18;6.50;;;;;;;-142.91;100.00;56616.03;5018684;28;20235;-68
2024/01/09 03:53:58;;;;;;;7.93;6.97;;;;;;;23.33;100.00;56616.03;5020621;28;20298;-68
2024/01/09 03:56:26;;;;;;;7.65;6.55;;;;;;;;;;5018667;28;20310;-70
2024/01/09 03:58:52;;;;;;;8.15;6.43;;;;;;;;;;5020491;28;20215;-69
2024/01/09 04:01:19;;;;;;;8.10;7.05;;;;;;;;;;5019394;28;20298;-69
2024/01/09 04:03:46;;;;;;;10.80;6.85;;;;;;;;;;5021511;28;20290;-67
2024/01/09 04:06:12;;;;;;;8.18;6.55;;;;;;;;;;5018916;28;20200;-68
2024/01/09 04:08:38;;;;;;;7.85;6.95;;;;;;;;;;5020620;28;20315;-68
2024/01/09 04:11:05;;;;;;;8.68;7.85;;;;;;;;;;5019682;28;20411;-69
2024/01/09 04:13:33;;;;;;;9.95;7.57;;;;;;;;;;5020455;28;20206;-68
2024/01/09 04:15:59;;;;;;;7.40;6.65;;;;;;;;;;5019270;28;20204;-66
2024/01/09 04:18:26;;;;;;;10.20;8.50;;;;;;;;;;5020074;28;20576;-68
2024/01/09 04:20:52;;;;;;;10.75;7.68;;;;;;;;;;5019338;28;20309;-68
2024/01/09 04:23:19;;;;;;;8.30;6.80;;;;;;;;;;5020140;28;20215;-68
2024/01/09 04:25:45;;;;;;;8.13;6.65;;;;;;;-142.91;100.00;56616.03;5019080;28;20715;-68
2024/01/09 04:28:11;;;;;;;11.35;6.80;;;;;;;;;;5020162;28;20359;-68
2024/01/09 04:30:39;;;;;;;7.60;6.85;;;;;;;;;;5019352;28;20772;-68
2024/01/09 04:33:06;;;;;;;10.80;7.32;;;;;;;;;;5020017;28;20335;-67
2024/01/09 04:35:32;;;;;;;8.50;6.35;;;;;;;23.33;100.00;56616.03;5017247;28;20311;-69
2024/01/09 04:37:59;;;;;;;8.43;7.35;;;;;;;;;;5019942;28;20286;-65
2024/01/09 04:40:27;;;;;;;10.02;7.78;;;;;;;;;;5020100;28;20214;-68
2024/01/09 04:42:54;;;;;;;9.50;7.53;;;;;;;;;;5019259;28;20208;-68
2024/01/09 04:45:20;;;;;;;10.48;7.55;;;;;;;;;;5019217;28;20303;-67
2024/01/09 04:47:48;;;;;;;10.10;7.80;;;;;;;;;;5017965;28;20207;-68
2024/01/09 04:50:14;;;;;;;9.23;7.07;;;;;;;;;;5016293;28;20231;-67
2024/01/09 04:52:41;;;;;;;8.00;7.18;;;;;;;;;;5021091;28;20219;-67
2024/01/09 04:55:09;;;;;;;13.60;7.00;;;;;;;-142.91;100.00;56616.03;5023767;28;20746;-67
2024/01/09 04:57:35;;;;;;;12.93;7.72;;;;;;;;;;5022554;28;20208;-70
2024/01/09 05:00:02;;;;;;;10.30;7.60;;;;;;;23.29;100.00;56616.03;5023926;28;20287;-67
2024/01/09 05:02:29;;;;;;;7.07;6.45;;;;;;;;;;5023744;28;20207;-69
2024/01/09 05:04:57;;;;;;;8.85;7.97;;;;;;;23.33;100.00;56616.03;5022240;28;20291;-69
2024/01/09 05:07:23;;;;;;;12.93;8.07;;;;;;;;;;5021330;28;20334;-69
2024/01/09 05:09:49;;;;;;;9.48;7.78;;;;;;;;;;5022021;28;20726;-69
2024/01/09 05:12:16;;;;;;;9.98;7.55;;;;;;;23.26;100.00;56616.03;5021681;28;20290;-68
2024/01/09 05:14:42;;;;;;;9.95;8.00;;;;;;;;;;5022389;28;20231;-66
2024/01/09 05:17:09;;;;;;;10.40;7.38;;;;;;;;;;5019427;28;20657;-66
2024/01/09 05:19:35;;;;;;;15.13;7.70;;;;;;;;;;5021657;28;20202;-67
2024/01/09 05:22:03;;;;;;;12.52;8.60;;;;;;;;;;5020939;28;20223;-66
2024/01/09 05:24:30;;;;;;;13.15;9.38;;;;;;;23.41;100.00;56616.03;5021052;28;20688;-68
2024/01/09 05:26:57;;;;;;;12.95;9.20;;;;;;;23.26;100.00;56616.03;5020520;28;20831;-68
2024/01/09 05:29:23;;;;;;;9.95;7.85;;;;;;;;;;5021079;28;20235;-68
2024/01/09 05:31:50;;;;;;;9.10;7.57;;;;;;;23.26;100.00;56616.03;5019446;28;20315;-69
2024/01/09 05:34:17;;;;;;;8.75;5.88;;;;;;;;;;5021805;28;20313;-67
2024/01/09 05:36:43;;;;;;;7.15;5.78;;;;;;;;;;5020853;28;21048;-68
2024/01/09 05:39:11;;;;;;;11.07;8.43;;;;;;;;;;5021450;28;20300;-68
2024/01/09 05:41:39;;;;;;;6.57;5.45;;;;;;;-142.91;100.00;56616.03;5021928;28;20279;-68
2024/01/09 05:44:05;;;;;;;4.05;3.67;;;;;;;;;;5021828;28;20300;-68
2024/01/09 05:46:32;;;;;;;2.45;2.25;;;;;;;;;;5022376;28;20314;-68
2024/01/09 05:48:58;;;;;;;2.17;2.08;;;;;;;;;;5023197;28;20314;-71
2024/01/09 05:51:25;;;;;;;5.43;2.80;;;;;;;;;;5021941;28;21018;-68
2024/01/09 05:53:51;;;;;;;2.22;2.13;;;;;;;23.26;100.00;56616.03;5022337;28;20203;-66
2024/01/09 05:56:19;;;;;;;2.78;2.53;;;;;;;;;;5021619;28;20311;-68
2024/01/09 05:58:45;;;;;;;2.50;2.38;;;;;;;;;;5023121;28;20291;-69
2024/01/09 06:01:12;;;;;;;3.25;2.30;;;;;;;;;;5021021;28;20681;-70
2024/01/09 06:03:38;;;;;;;3.28;2.47;;;;;;;;;;5022419;28;20212;-70
2024/01/09 06:06:05;;;;;;;2.20;2.10;;;;;;;;;;5021307;28;20710;-68
2024/01/09 06:08:31;;;;;;;3.63;2.72;;;;;;;23.26;100.00;56616.03;5021754;28;20229;-70
2024/01/09 06:10:58;;;;;;;3.45;2.40;;;;;;;;;;5022190;28;20306;-68
2024/01/09 06:13:26;;;;;;;2.65;2.15;;;;;;;;;;5022467;28;20215;-67
2024/01/09 06:15:52;;;;;;;2.53;2.33;;;;;;;;;;5021527;28;20319;-68
2024/01/09 06:18:19;;;;;;;4.15;1.90;;;;;;;-142.91;100.00;56616.03;5021351;28;20291;-67
2024/01/09 06:20:45;;;;;;;2.42;2.22;;;;;;;23.57;100.00;56616.03;5022164;28;20307;-70
2024/01/09 06:23:12;;;;;;;3.75;2.88;;;;;;;;;;5021849;28;20314;-68
2024/01/09 06:25:38;;;;;;;2.95;2.75;;;;;;;-142.91;100.00;56616.03;5021296;28;20310;-68
2024/01/09 06:28:05;;;;;;;2.17;1.98;;;;;;;-142.91;100.00;56616.03;5020804;28;20242;-66
2024/01/09 06:30:34;;;;;;;2.70;2.50;;;;;;;23.57;100.00;56616.03;5021609;28;20307;-67
2024/01/09 06:33:01;;;;;;;2.13;2.03;;;;;;;;;;5021770;28;20296;-69
2024/01/09 06:35:27;;;;;;;1.92;1.83;;;;;;;;;;5021057;28;20339;-69
2024/01/09 06:37:54;;;;;;;2.72;2.45;;;;;;;-142.91;100.00;56616.03;5021723;28;21126;-68
2024/01/09 06:40:20;;;;;;;3.00;2.80;;;;;;;;;;5021987;28;20200;-70
2024/01/09 06:42:47;;;;;;;1.48;1.42;;;;;;;;;;5019686;28;20203;-68
2024/01/09 06:45:15;;;;;;;2.15;2.05;;;;;;;-142.91;100.00;56616.03;5019703;28;20693;-70
2024/01/09 06:47:43;;;;;;;2.33;2.13;;;;;;;;;;5021876;28;20204;-68
2024/01/09 06:50:10;;;;;;;2.15;1.95;;;;;;;-142.91;100.00;56616.03;5021596;28;20258;-70
2024/01/09 06:52:38;;;;;;;2.70;2.50;;;;;;;23.41;100.00;56616.03;5020221;28;20290;-69
2024/01/09 06:55:05;;;;;;;2.72;2.53;;;;;;;;;;5021790;28;20611;-67
2024/01/09 06:57:31;;;;;;;3.70;3.40;;;;;;;;;;5021301;28;20476;-68
2024/01/09 06:59:57;;;;;;;6.38;3.60;;;;;;;;;;5020974;28;20226;-66
2024/01/09 07:02:24;;;;;;;2.72;2.53;;;;;;;23.57;100.00;56616.03;5020656;28;20215;-70
2024/01/09 07:04:52;;;;;;;4.13;3.75;;;;;;;;;;5020840;28;20745;-68
2024/01/09 07:07:18;;;;;;;2.53;2.40;;;;;;;-142.91;100.00;56616.03;5021539;28;20207;-70
2024/01/09 07:09:45;;;;;;;3.75;3.55;;;;;;;23.90;100.00;56616.03;5021478;28;20223;-68
2024/01/09 07:12:13;;;;;;;3.88;3.58;;;;;;;-142.91;100.00;56616.03;5020416;28;21672;-69
2024/01/09 07:14:39;;;;;;;2.35;2.25;;;;;;;;;;5020967;28;20235;-69
2024/01/09 07:17:07;;;;;;;3.10;2.85;;;;;;;-142.91;100.00;56616.03;5014355;28;20310;-69
2024/01/09 07:19:34;;;;;;;2.97;2.63;;;;;;;-142.91;100.00;56616.03;5020010;28;20744;-68
2024/01/09 07:22:02;;;;;;;6.22;3.15;;;;;;;;;;5017650;28;20600;-67
2024/01/09 07:24:28;;;;;;;4.38;3.95;;;;;;;23.90;100.00;56616.03;5019169;28;20292;-67
2024/01/09 07:26:55;;;;;;;4.47;3.78;;;;;;;-142.91;100.00;56616.03;5018532;28;20204;-69
2024/01/09 07:29:22;;;;;;;7.13;5.30;;;;;;;23.57;100.00;56616.03;5018203;28;20314;-68
2024/01/09 07:31:48;;;;;;;3.80;3.50;;;;;;;;;;5019211;28;20300;-69
2024/01/09 07:34:15;;;;;;;5.07;4.55;;;;;;;-142.91;100.00;56616.03;5019104;28;20864;-67
2024/01/09 07:36:42;;;;;;;6.47;5.15;;;;;;;23.27;100.00;56616.03;5019195;28;20204;-68
2024/01/09 07:39:12;;;;;;;5.20;4.70;;;;;;;-142.91;100.00;56616.03;5019509;28;20214;-68
2024/01/09 07:41:38;;;;;;;8.15;6.40;;;;;;;;;;5021006;28;20634;-69
2024/01/09 07:44:05;;;;;;;8.55;6.28;;;;;;;;;;5020900;28;20295;-67
2024/01/09 07:46:31;;;;;;;7.00;5.18;;;;;;;;;;5020741;28;20214;-67
2024/01/09 07:48:58;;;;;;;10.80;6.20;;;;;;;;;;5017796;28;21056;-69
2024/01/09 07:51:25;;;;;;;4.82;4.53;;;;;;;-142.91;100.00;56616.03;5019889;28;20322;-66
2024/01/09 07:53:51;;;;;;;7.18;5.20;;;;;;;;;;5019569;28;20314;-69
2024/01/09 07:56:21;;;;;;;7.28;5.70;;;;;;;-142.91;100.00;56616.03;5020409;28;20207;-70
2024/01/09 07:58:48;;;;;;;6.57;5.97;;;;;;;;;;5018760;28;20580;-68
2024/01/09 08:01:14;;;;;;;6.50;5.43;;;;;;;;;;5018727;28;20291;-67
2024/01/09 08:03:41;;;;;;;5.80;5.40;;;;;;;23.57;100.00;56616.03;5018681;28;20283;-69
2024/01/09 08:06:08;;;;;;;5.68;5.18;;;;;;;;;;5019247;28;20662;-67
2024/01/09 08:08:38;;;;;;;5.80;5.22;;;;;;;;;;5019195;28;20294;-68
2024/01/09 08:11:04;;;;;;;5.47;4.55;;;;;;;;;;5019548;28;20250;-69
2024/01/09 08:13:32;;;;;;;5.57;4.50;;;;;;;;;;5020244;28;20334;-70
2024/01/09 08:15:59;;;;;;;5.55;5.05;;;;;;;;;;5020487;28;20298;-69
2024/01/09 08:18:25;;;;;;;5.28;4.47;;;;;;;-142.91;100.00;56616.03;5019546;28;20752;-69
2024/01/09 08:20:52;;;;;;;5.45;4.45;;;;;;;;;;5020365;28;20224;-70
2024/01/09 08:23:18;;;;;;;4.28;4.00;;;;;;;;;;5019897;28;20757;-67
2024/01/09 08:25:45;;;;;;;4.10;3.75;;;;;;;;;;5019577;28;20295;-69
2024/01/09 08:28:12;;;;;;;5.93;4.10;;;;;;;-142.91;100.00;56616.03;5019315;28;20215;-68
2024/01/09 08:30:40;;;;;;;6.25;4.95;;;;;;;;;;5019417;28;20238;-68
2024/01/09 08:33:07;;;;;;;20.25;4.60;;;;;;;;;;5019151;28;20791;-67
2024/01/09 08:35:33;;;;;;;4.32;3.95;;;;;;;;;;5018851;28;20773;-70
2024/01/09 08:37:59;;;;;;;7.85;4.80;;;;;;;;;;5019252;28;20208;-70
2024/01/09 08:40:26;;;;;;;4.10;3.78;;;;;;;-142.91;100.00;56616.03;5018431;28;20290;-68
2024/01/09 08:42:53;;;;;;;3.85;3.55;;;;;;;-142.91;100.00;56616.03;5018864;28;20219;-68
2024/01/09 08:45:20;;;;;;;2.08;1.95;;;;;;;-142.91;100.00;56616.03;5019126;28;20298;-68
2024/01/09 08:47:48;;;;;;;4.63;3.00;;;;;;;-142.91;100.00;56616.03;5018729;28;20450;-66
2024/01/09 08:50:14;;;;;;;3.85;3.53;;;;;;;;;;5018535;28;20796;-68
2024/01/09 08:52:40;;;;;;;5.15;3.97;;;;;;;-142.91;100.00;56616.03;5019187;28;20203;-70
2024/01/09 08:55:07;;;;;;;2.95;2.75;;;;;;;;;;5018154;28;21591;-71
2024/01/09 08:57:34;;;;;;;3.70;3.40;;;;;;;-142.91;100.00;56616.03;5019786;28;20283;-70
2024/01/09 09:00:01;;;;;;;1.70;1.60;;;;;;;-142.91;100.00;56616.03;5018925;28;21705;-67
2024/01/09 09:02:27;;;;;;;3.30;3.03;;;;;;;-142.91;100.00;56616.03;5018389;28;20290;-65
2024/01/09 09:04:55;;;;;;;2.78;2.53;;;;;;;-142.91;100.00;56616.03;5019803;28;20204;-67
2024/01/09 09:07:22;;;;;;;4.13;3.72;;;;;;;23.26;100.00;56616.03;5019566;28;20333;-68
2024/01/09 09:09:48;;;;;;;3.42;3.20;;;;;;;;;;5019120;28;20799;-68
2024/01/09 09:12:15;;;;;;;3.75;3.45;;;;;;;;;;5019225;28;20294;-68
2024/01/09 09:14:41;;;;;;;3.97;3.67;;;;;;;;;;5019947;28;20284;-66
2024/01/09 09:17:08;;;;;;;4.68;4.28;;;;;;;;;;5011609;28;20211;-67
2024/01/09 09:19:34;;;;;;;4.65;4.28;;;;;;;-142.91;100.00;56616.03;5016272;28;20674;-69
2024/01/09 09:22:02;;;;;;;4.95;4.20;;;;;;;;;;5017360;28;20231;-69
2024/01/09 09:24:29;;;;;;;4.70;4.20;;;;;;;;;;5015695;28;20203;-69
2024/01/09 09:26:55;;;;;;;4.22;3.83;;;;;;;;;;5017921;28;20207;-66
2024/01/09 09:29:21;;;;;;;3.67;3.33;;;;;;;;;;5016277;28;21283;-70
2024/01/09 09:31:48;;;;;;;3.90;3.38;;;;;;;;;;5019480;28;20231;-67
2024/01/09 09:34:14;;;;;;;3.78;3.30;;;;;;;23.25;100.00;56616.03;5017198;28;20599;-68
2024/01/09 09:36:41;;;;;;;4.30;3.90;;;;;;;;;;5019257;28;20274;-67
2024/01/09 09:39:10;;;;;;;4.03;3.72;;;;;;;;;;5020890;28;20318;-67
2024/01/09 09:41:37;;;;;;;3.40;3.20;;;;;;;;;;5022068;28;20602;-69
2024/01/09 09:44:04;;;;;;;3.97;3.65;;;;;;;;;;5022997;28;20212;-67
2024/01/09 09:46:31;;;;;;;4.15;3.83;;;;;;;-142.91;100.00;56616.03;5021885;28;20222;-67
2024/01/09 09:48:58;;;;;;;3.08;2.88;;;;;;;;;;5022307;28;20274;-70
2024/01/09 09:51:25;;;;;;;3.83;3.50;;;;;;;;;;5022141;28;20231;-68
2024/01/09 09:53:51;;;;;;;3.70;3.40;;;;;;;;;;5020804;28;20298;-67
2024/01/09 09:56:20;;;;;;;4.05;3.67;;;;;;;;;;5021894;28;20212;-70
2024/01/09 09:58:46;;;;;;;3.30;3.10;;;;;;;;;;5021646;28;20326;-69
2024/01/09 10:01:14;;;;;;;3.28;2.97;;;;;;;23.25;100.00;56616.03;5022011;28;20290;-70
2024/01/09 10:03:49;;;;;;;4.20;3.47;;;;;;;44.04;100.00;56616.03;5021642;28;20287;-70
2024/01/09 10:06:17;;;;;;;3.08;2.88;;;;;;;;;;5019969;28;20855;-72
2024/01/09 10:08:44;;;;;;;3.38;3.05;;;;;;;;;;5020252;28;20586;-68
2024/01/09 10:11:10;;;;;;;3.75;3.40;;;;;;;;;;5021833;28;20321;-70
2024/01/09 10:13:40;;;;;;;3.70;3.30;;;;;;;-142.91;100.00;56616.03;5017935;28;20207;-70
2024/01/09 10:16:07;;;;;;;4.00;3.70;;;;;;;;;;5019546;28;20200;-67
2024/01/09 10:18:35;;;;;;;3.72;3.42;;;;;;;-142.91;100.00;56616.03;5020789;28;20307;-68
2024/01/09 10:21:02;;;;;;;3.53;3.22;;;;;;;;;;5019342;28;20334;-66
2024/01/09 10:23:28;;;;;;;6.43;4.00;;;;;;;;;;5019002;28;20223;-67
2024/01/09 10:25:56;;;;;;;2.97;2.78;;;;;;;23.90;100.00;56616.03;5019627;28;20230;-65
2024/01/09 10:28:21;;;;;;;3.72;3.42;;;;;;;;;;5019864;28;20295;-68
2024/01/09 10:30:50;;;;;;;4.78;3.90;;;;;;;;;;5020320;28;20312;-66
2024/01/09 10:33:17;;;;;;;5.05;4.38;;;;;;;;;;5019372;28;20203;-69
2024/01/09 10:35:44;;;;;;;4.57;3.78;;;;;;;;;;5020856;28;20684;-68
2024/01/09 10:38:10;;;;;;;5.55;4.78;;;;;;;;;;5020249;28;20332;-68
2024/01/09 10:40:37;;;;;;;3.83;3.03;;;;;;;44.04;100.00;56616.03;5020311;28;20273;-67
2024/01/09 10:43:04;;;;;;;6.15;4.82;;;;;;;;;;5020830;28;20294;-69
2024/01/09 10:45:31;;;;;;;6.78;4.32;;;;;;;-142.91;100.00;56616.03;5020588;28;20200;-70
2024/01/09 10:48:00;;;;;;;5.60;4.80;;;;;;;23.25;100.00;56616.03;5020452;28;20235;-67
2024/01/09 10:50:26;;;;;;;4.15;3.83;;;;;;;-142.91;100.00;56616.03;5020317;28;20326;-68
2024/01/09 10:52:53;;;;;;;6.60;5.10;;;;;;;;;;5021692;28;20222;-69
2024/01/09 10:55:21;;;;;;;6.63;5.18;;;;;;;;;;5021864;28;20683;-69
2024/01/09 10:57:48;;;;;;;11.23;5.38;;;;;;;;;;5021779;28;20287;-70
2024/01/09 11:00:16;;;;;;;6.25;3.88;;;;;;;;;;5019709;28;20605;-67
2024/01/09 11:02:43;;;;;;;6.63;4.83;;;;;;;-142.91;100.00;56616.03;5021234;28;20203;-69
2024/01/09 11:05:11;;;;;;;6.30;5.70;;;;;;;;;;5022399;28;20295;-69
2024/01/09 11:07:38;;;;;;;6.50;5.87;;;;;;;;;;5021600;28;20409;-71
2024/01/09 11:10:06;;;;;;;6.93;5.15;;;;;;;-142.91;100.00;56616.03;5020225;28;20234;-69
2024/01/09 11:12:36;;;;;;;4.97;4.55;;;;;;;-142.91;100.00;56616.03;5021219;28;20286;-70
2024/01/09 11:15:06;;;;;;;4.78;4.43;;;;;;;;;;5020966;28;20208;-69
2024/01/09 11:17:32;;;;;;;4.67;4.23;;;;;;;;;;5020520;28;20207;-68
2024/01/09 11:19:59;;;;;;;6.00;5.40;;;;;;;-142.91;100.00;56616.03;5020463;28;20715;-69
2024/01/09 11:22:35;;;;;;;7.35;3.28;;;;;;;-142.91;100.00;56616.03;5020818;28;20555;-70
2024/01/09 11:25:04;;;;;;;5.28;4.18;;;;;;;-142.91;100.00;56616.03;5021474;28;20300;-69
2024/01/09 11:27:39;;;;;;;4.20;3.80;;;;;;;-142.91;100.00;56616.03;5021039;28;20206;-68
2024/01/09 11:30:07;;;;;;;6.05;4.85;;;;;;;-142.91;100.00;56616.03;5019745;28;20318;-69
2024/01/09 11:32:34;;;;;;;5.43;4.90;;;;;;;-142.91;100.00;56616.03;5021254;28;20204;-69
2024/01/09 11:35:18;;;;;;;4.15;3.78;;;;;;;;;;5020470;28;20207;-67
2024/01/09 11:37:48;;;;;;;5.20;4.03;;;;;;;;;;5021147;28;20668;-68
2024/01/09 11:40:17;;;;;;;6.00;4.72;;;;;;;-142.91;100.00;56616.03;5020106;28;20196;-70
2024/01/09 11:42:45;;;;;;;7.17;4.40;;;;;;;-142.91;100.00;56616.03;5021701;28;20218;-68
2024/01/09 11:45:12;;;;;;;3.35;3.13;;;;;;;;;;5021120;28;20295;-69
2024/01/09 11:47:39;;;;;;;6.88;4.47;;;;;;;-142.91;100.00;56616.03;5021187;28;20214;-69
2024/01/09 11:50:06;;;;;;;6.07;4.30;;;;;;;;;;5019697;28;20733;-68
2024/01/09 11:52:32;;;;;;;7.55;5.43;;;;;;;;;;5020874;28;20583;-68
2024/01/09 11:55:00;;;;;;;6.18;3.95;;;;;;;-142.91;100.00;56616.03;5020811;28;20235;-69
2024/01/09 11:57:27;;;;;;;3.80;3.42;;;;;;;;;;5020634;28;20290;-69
2024/01/09 11:59:54;;;;;;;5.22;4.35;;;;;;;-142.91;100.00;56616.03;5019407;28;20674;-68
2024/01/09 12:02:21;;;;;;;8.60;5.75;;;;;;;-142.91;100.00;56616.03;5020079;28;20223;-70
2024/01/09 12:04:47;;;;;;;3.50;3.20;;;;;;;-142.91;100.00;56616.03;5020895;28;20238;-68
2024/01/09 12:07:14;;;;;;;6.07;5.47;;;;;;;-142.91;100.00;56616.03;5020509;28;20796;-67
2024/01/09 12:09:41;;;;;;;2.67;2.25;;;;;;;-142.91;100.00;56616.03;5018718;28;20221;-69
2024/01/09 12:12:10;;;;;;;3.38;2.97;;;;;;;-142.91;100.00;56616.03;5016741;28;20314;-68
2024/01/09 12:14:37;;;;;;;3.10;2.90;;;;;;;-142.91;100.00;56616.03;5020055;28;20599;-68
2024/01/09 12:17:18;;;;;;;5.20;3.78;;;;;;;33.65;100.00;56616.03;5017572;28;20334;-67
2024/01/09 12:19:45;;;;;;;3.80;3.53;;;;;;;-142.91;100.00;56616.03;5019339;28;20863;-69
2024/01/09 12:22:12;;;;;;;4.55;2.92;;;;;;;-142.91;100.00;56616.03;5018337;28;20226;-70
2024/01/09 12:24:39;;;;;;;4.90;3.65;;;;;;;-142.91;100.00;56616.03;5019143;28;20203;-69
2024/01/09 12:27:06;;;;;;;3.10;2.23;;;;;;;-142.91;100.00;56616.03;5017635;28;20495;-68
2024/01/09 12:29:34;;;;;;;3.60;3.27;;;;;;;64.84;100.00;56616.03;5015105;28;20303;-68
2024/01/09 12:32:03;;;;;;;1.77;1.67;;;;;;;-142.91;100.00;56616.03;5000684;28;20264;-69
2024/01/09 12:34:30;;;;;;;3.93;2.20;;;;;;;-142.91;100.00;56616.03;5008022;28;20338;-68
2024/01/09 12:36:58;;;;;;;3.10;2.80;;;;;;;23.33;100.00;56616.03;5003922;28;20662;-69
2024/01/09 12:39:25;;;;;;;3.97;2.75;;;;;;;-142.91;100.00;56616.03;4982890;28;20207;-68
2024/01/09 12:41:53;;;;;;;3.90;3.40;;;;;;;-142.91;100.00;56616.03;5006348;28;20204;-67
2024/01/09 12:44:20;;;;;;;3.55;3.10;;;;;;;-142.91;100.00;56616.03;5003296;28;20743;-70
2024/01/09 12:46:49;;;;;;;3.65;3.25;;;;;;;-142.91;100.00;56616.03;5009214;28;20309;-69
2024/01/09 12:49:17;;;;;;;8.73;3.07;;;;;;;-142.91;100.00;56616.03;5014185;28;20298;-69
2024/01/09 12:51:44;;;;;;;2.38;2.28;;;;;;;-142.91;100.00;56616.03;5007239;28;20234;-68
2024/01/09 12:54:15;;;;;;;2.33;2.13;;;;;;;-142.91;100.00;56616.03;5013046;28;20211;-71
2024/01/09 12:56:43;;;;;;;2.07;1.97;;;;;;;-142.91;100.00;56616.03;5031329;28;20207;-69
2024/01/09 12:59:10;;;;;;;2.80;2.47;;;;;;;-142.91;100.00;56616.03;5030897;28;20218;-69
2024/01/09 13:01:37;;;;;;;2.63;2.10;;;;;;;-142.91;100.00;56616.03;5029632;28;20210;-67
2024/01/09 13:04:05;;;;;;;3.03;2.83;;;;;;;-142.91;100.00;56616.03;5016498;28;20286;-68
2024/01/09 13:06:31;;;;;;;2.07;1.93;;;;;;;-142.91;100.00;56616.03;5022790;28;20208;-68
2024/01/09 13:08:58;;;;;;;1.80;1.50;;;;;;;-142.91;100.00;56616.03;5013308;28;20230;-70
2024/01/09 13:11:25;;;;;;;1.75;1.65;;;;;;;23.25;100.00;56616.03;5010706;28;20237;-67